createdAt,value
2023-04-18T00:00:48.806Z,10788.00
2023-04-18T00:01:48.907Z,10739.00
2023-04-18T00:02:48.931Z,10686.00
2023-04-18T00:03:49.221Z,10671.00
2023-04-18T00:04:49.135Z,10720.00
2023-04-18T00:05:48.982Z,10757.00
2023-04-18T00:06:49.043Z,10795.00
2023-04-18T00:07:49.055Z,10946.00
2023-04-18T00:08:49.093Z,10981.00
2023-04-18T00:09:49.129Z,10953.00
2023-04-18T00:10:49.167Z,10850.00
2023-04-18T00:11:49.196Z,10835.00
2023-04-18T00:12:49.231Z,10799.00
2023-04-18T00:13:49.263Z,10814.00
2023-04-18T00:14:49.292Z,10764.00
2023-04-18T00:15:49.304Z,10726.00
2023-04-18T00:16:49.397Z,10703.00
2023-04-18T00:17:49.444Z,10699.00
2023-04-18T00:18:49.443Z,10678.00
2023-04-18T00:19:49.539Z,10492.00
2023-04-18T00:20:49.589Z,10394.00
2023-04-18T00:21:49.669Z,10466.00
2023-04-18T00:22:49.700Z,10552.00
2023-04-18T00:23:49.763Z,10745.00
2023-04-18T00:24:49.837Z,10716.00
2023-04-18T00:25:49.906Z,10485.00
2023-04-18T00:26:50.009Z,10260.00
2023-04-18T00:27:50.067Z,10174.00
2023-04-18T00:28:50.118Z,10100.00
2023-04-18T00:29:50.181Z,10057.00
2023-04-18T00:30:50.198Z,10061.00
2023-04-18T00:31:50.155Z,10091.00
2023-04-18T00:32:50.209Z,10135.00
2023-04-18T00:33:50.235Z,10243.00
2023-04-18T00:34:50.216Z,10418.00
2023-04-18T00:35:50.260Z,10241.00
2023-04-18T00:36:50.222Z,10286.00
2023-04-18T00:37:50.226Z,10367.00
2023-04-18T00:38:50.283Z,10427.00
2023-04-18T00:39:50.303Z,10532.00
2023-04-18T00:40:50.372Z,10630.00
2023-04-18T00:41:50.533Z,10738.00
2023-04-18T00:42:50.553Z,10873.00
2023-04-18T00:43:50.518Z,10845.00
2023-04-18T00:44:50.597Z,10931.00
2023-04-18T00:45:50.715Z,10856.00
2023-04-18T00:46:50.697Z,11041.00
2023-04-18T00:47:50.923Z,11170.00
2023-04-18T00:48:51.651Z,11216.00
2023-04-18T00:49:51.163Z,11186.00
2023-04-18T00:50:50.945Z,11303.00
2023-04-18T00:51:51.045Z,11479.00
2023-04-18T00:52:51.105Z,11573.00
2023-04-18T00:53:51.181Z,11637.00
2023-04-18T00:54:51.247Z,11501.00
2023-04-18T00:55:51.295Z,11538.00
2023-04-18T00:56:51.327Z,11515.00
2023-04-18T00:57:51.384Z,11352.00
2023-04-18T00:58:51.457Z,11143.00
2023-04-18T00:59:51.530Z,11047.00
2023-04-18T01:00:51.632Z,10937.00
2023-04-18T01:01:51.747Z,10845.00
2023-04-18T01:02:51.835Z,10831.00
2023-04-18T01:03:51.922Z,10766.00
2023-04-18T01:04:51.847Z,10618.00
2023-04-18T01:05:51.879Z,10589.00
2023-04-18T01:06:51.954Z,10642.00
2023-04-18T01:07:52.023Z,10627.00
2023-04-18T01:08:52.072Z,10637.00
2023-04-18T01:09:52.120Z,10716.00
2023-04-18T01:10:52.242Z,10786.00
2023-04-18T01:11:52.322Z,10712.00
2023-04-18T01:12:52.392Z,10672.00
2023-04-18T01:13:52.456Z,10703.00
2023-04-18T01:14:52.488Z,10617.00
2023-04-18T01:15:52.815Z,10519.00
2023-04-18T01:16:52.648Z,10481.00
2023-04-18T01:17:52.777Z,10423.00
2023-04-18T01:18:52.731Z,10356.00
2023-04-18T01:19:52.795Z,10292.00
2023-04-18T01:20:52.881Z,10268.00
2023-04-18T01:21:52.995Z,10367.00
2023-04-18T01:22:52.996Z,10339.00
2023-04-18T01:23:53.660Z,10387.00
2023-04-18T01:24:53.649Z,10373.00
2023-04-18T01:25:53.053Z,10368.00
2023-04-18T01:26:53.075Z,10447.00
2023-04-18T01:27:53.126Z,10567.00
2023-04-18T01:28:53.163Z,10611.00
2023-04-18T01:29:53.211Z,10638.00
2023-04-18T01:30:53.292Z,10686.00
2023-04-18T01:31:53.367Z,10737.00
2023-04-18T01:32:53.512Z,10826.00
2023-04-18T01:33:53.537Z,10946.00
2023-04-18T01:34:53.571Z,10989.00
2023-04-18T01:35:53.628Z,11052.00
2023-04-18T01:36:53.653Z,11107.00
2023-04-18T01:37:53.712Z,11025.00
2023-04-18T01:38:53.732Z,10953.00
2023-04-18T01:39:53.785Z,10937.00
2023-04-18T01:40:53.814Z,10977.00
2023-04-18T01:41:53.844Z,10957.00
2023-04-18T01:42:53.892Z,10965.00
2023-04-18T01:43:53.881Z,11007.00
2023-04-18T01:44:53.916Z,10931.00
2023-04-18T01:45:53.957Z,10918.00
2023-04-18T01:46:54.065Z,11092.00
2023-04-18T01:47:54.100Z,11177.00
2023-04-18T01:48:54.065Z,11435.00
2023-04-18T01:49:54.100Z,11624.00
2023-04-18T01:50:54.146Z,11642.00
2023-04-18T01:51:54.230Z,11419.00
2023-04-18T01:52:54.305Z,11447.00
2023-04-18T01:53:54.363Z,11393.00
2023-04-18T01:54:54.471Z,11425.00
2023-04-18T01:55:54.519Z,11464.00
2023-04-18T01:56:54.588Z,11622.00
2023-04-18T01:57:54.656Z,11747.00
2023-04-18T01:58:55.645Z,11767.00
2023-04-18T01:59:54.779Z,11830.00
2023-04-18T02:00:54.866Z,11952.00
2023-04-18T02:01:54.989Z,12031.00
2023-04-18T02:02:54.978Z,11996.00
2023-04-18T02:03:55.269Z,12112.00
2023-04-18T02:04:54.961Z,12148.00
2023-04-18T02:05:54.991Z,12228.00
2023-04-18T02:06:55.014Z,12237.00
2023-04-18T02:07:55.061Z,12202.00
2023-04-18T02:08:55.099Z,12227.00
2023-04-18T02:09:55.161Z,12146.00
2023-04-18T02:10:55.197Z,12052.00
2023-04-18T02:11:55.245Z,11913.00
2023-04-18T02:12:55.266Z,11508.00
2023-04-18T02:13:55.328Z,11290.00
2023-04-18T02:14:55.371Z,11121.00
2023-04-18T02:15:55.403Z,11181.00
2023-04-18T02:16:55.489Z,11387.00
2023-04-18T02:17:55.524Z,11479.00
2023-04-18T02:18:55.540Z,11588.00
2023-04-18T02:19:55.583Z,11633.00
2023-04-18T02:20:55.674Z,11646.00
2023-04-18T02:21:55.704Z,11374.00
2023-04-18T02:22:55.779Z,11215.00
2023-04-18T02:23:55.853Z,11239.00
2023-04-18T02:24:55.910Z,11140.00
2023-04-18T02:25:56.027Z,11056.00
2023-04-18T02:26:56.022Z,10842.00
2023-04-18T02:27:56.086Z,10719.00
2023-04-18T02:28:56.106Z,10744.00
2023-04-18T02:29:56.174Z,10755.00
2023-04-18T02:30:56.227Z,10781.00
2023-04-18T02:31:56.287Z,10794.00
2023-04-18T02:32:56.317Z,10779.00
2023-04-18T02:33:56.330Z,10780.00
2023-04-18T02:34:56.322Z,10777.00
2023-04-18T02:35:56.339Z,10634.00
2023-04-18T02:36:56.338Z,10580.00
2023-04-18T02:37:56.368Z,10518.00
2023-04-18T02:38:56.372Z,10362.00
2023-04-18T02:39:57.159Z,10422.00
2023-04-18T02:40:56.463Z,10382.00
2023-04-18T02:41:56.540Z,10425.00
2023-04-18T02:42:56.483Z,10461.00
2023-04-18T02:43:57.178Z,10402.00
2023-04-18T02:44:56.572Z,10248.00
2023-04-18T02:45:56.744Z,10227.00
2023-04-18T02:46:56.798Z,10272.00
2023-04-18T02:47:57.703Z,10331.00
2023-04-18T02:48:56.868Z,10357.00
2023-04-18T02:49:56.959Z,10330.00
2023-04-18T02:50:57.025Z,10255.00
2023-04-18T02:51:57.707Z,10321.00
2023-04-18T02:52:57.110Z,10178.00
2023-04-18T02:53:57.180Z,10090.00
2023-04-18T02:54:57.220Z,10135.00
2023-04-18T02:55:57.680Z,10130.00
2023-04-18T02:56:57.354Z,10087.00
2023-04-18T02:57:57.447Z,10051.00
2023-04-18T02:58:57.464Z,10037.00
2023-04-18T02:59:57.565Z,10092.00
2023-04-18T03:00:57.684Z,10149.00
2023-04-18T03:01:57.758Z,10208.00
2023-04-18T03:02:57.971Z,10194.00
2023-04-18T03:03:57.831Z,10152.00
2023-04-18T03:04:57.886Z,10126.00
2023-04-18T03:05:57.943Z,10169.00
2023-04-18T03:06:58.021Z,10204.00
2023-04-18T03:07:58.112Z,10295.00
2023-04-18T03:08:58.200Z,10429.00
2023-04-18T03:09:58.252Z,10467.00
2023-04-18T03:10:58.327Z,10709.00
2023-04-18T03:11:58.387Z,10951.00
2023-04-18T03:12:58.420Z,11038.00
2023-04-18T03:13:58.470Z,10797.00
2023-04-18T03:14:58.536Z,10795.00
2023-04-18T03:15:58.713Z,10786.00
2023-04-18T03:16:58.688Z,10864.00
2023-04-18T03:17:58.807Z,10699.00
2023-04-18T03:18:58.853Z,10699.00
2023-04-18T03:19:58.926Z,10520.00
2023-04-18T03:20:59.011Z,10344.00
2023-04-18T03:21:59.091Z,10261.00
2023-04-18T03:23:00.156Z,10291.00
2023-04-18T03:23:59.249Z,10355.00
2023-04-18T03:24:59.330Z,10455.00
2023-04-18T03:25:59.420Z,10484.00
2023-04-18T03:26:59.508Z,10388.00
2023-04-18T03:27:59.581Z,10390.00
2023-04-18T03:28:59.665Z,10458.00
2023-04-18T03:29:59.720Z,10518.00
2023-04-18T03:30:59.823Z,10499.00
2023-04-18T03:31:59.908Z,10391.00
2023-04-18T03:32:59.961Z,10372.00
2023-04-18T03:34:00.031Z,10371.00
2023-04-18T03:35:00.086Z,10281.00
2023-04-18T03:36:00.148Z,10256.00
2023-04-18T03:37:00.209Z,10207.00
2023-04-18T03:38:00.232Z,10034.00
2023-04-18T03:39:00.360Z,9956.00
2023-04-18T03:40:00.416Z,9976.00
2023-04-18T03:41:00.497Z,9946.00
2023-04-18T03:42:00.538Z,9956.00
2023-04-18T03:43:00.528Z,10030.00
2023-04-18T03:44:00.586Z,10185.00
2023-04-18T03:45:00.566Z,10443.00
2023-04-18T03:46:00.632Z,10698.00
2023-04-18T03:47:00.632Z,10672.00
2023-04-18T03:48:00.688Z,10657.00
2023-04-18T03:49:00.663Z,10700.00
2023-04-18T03:50:00.697Z,10757.00
2023-04-18T03:51:00.802Z,10921.00
2023-04-18T03:52:00.860Z,10977.00
2023-04-18T03:53:00.910Z,10950.00
2023-04-18T03:54:00.980Z,10871.00
2023-04-18T03:55:01.045Z,10688.00
2023-04-18T03:56:01.134Z,10562.00
2023-04-18T03:57:01.195Z,10431.00
2023-04-18T03:58:01.249Z,10292.00
2023-04-18T03:59:01.299Z,10263.00
2023-04-18T04:00:01.371Z,10231.00
2023-04-18T04:01:01.490Z,10199.00
2023-04-18T04:02:01.690Z,9957.00
2023-04-18T04:03:01.887Z,9785.00
2023-04-18T04:04:01.765Z,9651.00
2023-04-18T04:05:01.909Z,9553.00
2023-04-18T04:06:01.933Z,9532.00
2023-04-18T04:07:01.872Z,9436.00
2023-04-18T04:08:01.955Z,9528.00
2023-04-18T04:09:01.921Z,9465.00
2023-04-18T04:10:01.937Z,9455.00
2023-04-18T04:11:02.041Z,9542.00
2023-04-18T04:12:01.980Z,9689.00
2023-04-18T04:13:01.980Z,9858.00
2023-04-18T04:14:02.017Z,10025.00
2023-04-18T04:15:02.037Z,10172.00
2023-04-18T04:16:02.081Z,10241.00
2023-04-18T04:17:02.088Z,10033.00
2023-04-18T04:18:02.198Z,9931.00
2023-04-18T04:19:02.256Z,9928.00
2023-04-18T04:20:02.296Z,9860.00
2023-04-18T04:21:02.324Z,9827.00
2023-04-18T04:22:02.431Z,9907.00
2023-04-18T04:23:02.495Z,9841.00
2023-04-18T04:24:02.588Z,9801.00
2023-04-18T04:25:02.643Z,9829.00
2023-04-18T04:26:02.713Z,9869.00
2023-04-18T04:27:02.809Z,9911.00
2023-04-18T04:28:02.868Z,9817.00
2023-04-18T04:29:02.904Z,9861.00
2023-04-18T04:30:02.953Z,9970.00
2023-04-18T04:31:02.994Z,10113.00
2023-04-18T04:32:03.100Z,10151.00
2023-04-18T04:33:03.074Z,10154.00
2023-04-18T04:34:03.104Z,10123.00
2023-04-18T04:35:03.107Z,9969.00
2023-04-18T04:36:03.131Z,10028.00
2023-04-18T04:37:03.142Z,10153.00
2023-04-18T04:38:03.150Z,10188.00
2023-04-18T04:39:03.182Z,10206.00
2023-04-18T04:40:03.202Z,10283.00
2023-04-18T04:41:03.205Z,10404.00
2023-04-18T04:42:03.215Z,10384.00
2023-04-18T04:43:03.221Z,10515.00
2023-04-18T04:44:03.258Z,10929.00
2023-04-18T04:45:03.347Z,11305.00
2023-04-18T04:46:03.323Z,11400.00
2023-04-18T04:47:03.296Z,11300.00
2023-04-18T04:48:03.392Z,11302.00
2023-04-18T04:49:03.295Z,11331.00
2023-04-18T04:50:03.300Z,11311.00
2023-04-18T04:51:03.339Z,11212.00
2023-04-18T04:52:03.344Z,10578.00
2023-04-18T04:53:03.371Z,10552.00
2023-04-18T04:54:03.372Z,10658.00
2023-04-18T04:55:03.401Z,10752.00
2023-04-18T04:56:03.410Z,10581.00
2023-04-18T04:57:03.482Z,10532.00
2023-04-18T04:58:03.450Z,10298.00
2023-04-18T04:59:03.447Z,10037.00
2023-04-18T05:00:03.471Z,9855.00
2023-04-18T05:01:04.222Z,9898.00
2023-04-18T05:02:03.576Z,9943.00
2023-04-18T05:03:03.692Z,9992.00
2023-04-18T05:04:03.706Z,9997.00
2023-04-18T05:05:03.562Z,10016.00
2023-04-18T05:06:04.175Z,10081.00
2023-04-18T05:07:03.568Z,10228.00
2023-04-18T05:08:03.571Z,10373.00
2023-04-18T05:09:03.631Z,10481.00
2023-04-18T05:10:03.602Z,10505.00
2023-04-18T05:11:03.611Z,10489.00
2023-04-18T05:12:03.637Z,10419.00
2023-04-18T05:13:03.636Z,9708.00
2023-04-18T05:14:03.671Z,9780.00
2023-04-18T05:15:03.681Z,9738.00
2023-04-18T05:16:03.681Z,9425.00
2023-04-18T05:17:03.720Z,9603.00
2023-04-18T05:18:03.738Z,9722.00
2023-04-18T05:19:03.757Z,9104.00
2023-04-18T05:20:03.725Z,8689.00
2023-04-18T05:21:03.753Z,8370.00
2023-04-18T05:22:03.761Z,8130.00
2023-04-18T05:23:03.826Z,8107.00
2023-04-18T05:24:03.861Z,7711.00
2023-04-18T05:25:03.898Z,7806.00
2023-04-18T05:26:03.959Z,7868.00
2023-04-18T05:27:04.031Z,7887.00
2023-04-18T05:28:04.103Z,7886.00
2023-04-18T05:29:04.177Z,8021.00
2023-04-18T05:30:04.252Z,8065.00
2023-04-18T05:31:04.360Z,8424.00
2023-04-18T05:32:04.353Z,8545.00
2023-04-18T05:33:04.438Z,8881.00
2023-04-18T05:34:04.491Z,9073.00
2023-04-18T05:35:04.602Z,8944.00
2023-04-18T05:36:04.596Z,8697.00
2023-04-18T05:37:04.702Z,8351.00
2023-04-18T05:38:04.644Z,8178.00
2023-04-18T05:39:04.674Z,7969.00
2023-04-18T05:40:04.708Z,7885.00
2023-04-18T05:41:04.722Z,7782.00
2023-04-18T05:42:04.742Z,7755.00
2023-04-18T05:43:04.750Z,7691.00
2023-04-18T05:44:05.921Z,7628.00
2023-04-18T05:45:04.818Z,7685.00
2023-04-18T05:46:04.838Z,7729.00
2023-04-18T05:47:05.485Z,7890.00
2023-04-18T05:48:05.289Z,8214.00
2023-04-18T05:49:04.863Z,8342.00
2023-04-18T05:50:04.872Z,8429.00
2023-04-18T05:51:05.708Z,8219.00
2023-04-18T05:52:04.907Z,8218.00
2023-04-18T05:53:04.905Z,8442.00
2023-04-18T05:54:04.940Z,8342.00
2023-04-18T05:55:05.007Z,8295.00
2023-04-18T05:56:04.911Z,8384.00
2023-04-18T05:57:05.009Z,8157.00
2023-04-18T05:58:04.965Z,8054.00
2023-04-18T05:59:05.070Z,7938.00
2023-04-18T06:00:04.952Z,7751.00
2023-04-18T06:01:04.954Z,7998.00
2023-04-18T06:02:05.756Z,8136.00
2023-04-18T06:03:07.880Z,8208.00
2023-04-18T06:04:05.867Z,8213.00
2023-04-18T06:05:05.296Z,8232.00
2023-04-18T06:06:05.018Z,8308.00
2023-04-18T06:07:05.024Z,8395.00
2023-04-18T06:08:05.246Z,8571.00
2023-04-18T06:09:05.015Z,8487.00
2023-04-18T06:10:05.027Z,8295.00
2023-04-18T06:11:05.711Z,8123.00
2023-04-18T06:12:05.063Z,7831.00
2023-04-18T06:13:05.004Z,7719.00
2023-04-18T06:14:05.019Z,7578.00
2023-04-18T06:15:05.015Z,7492.00
2023-04-18T06:16:05.050Z,7426.00
2023-04-18T06:17:05.008Z,7239.00
2023-04-18T06:18:05.067Z,7041.00
2023-04-18T06:19:05.065Z,6928.00
2023-04-18T06:20:04.993Z,7216.00
2023-04-18T06:21:07.722Z,7104.00
2023-04-18T06:22:05.006Z,7017.00
2023-04-18T06:23:05.017Z,7024.00
2023-04-18T06:24:04.980Z,7089.00
2023-04-18T06:25:05.039Z,7208.00
2023-04-18T06:26:04.974Z,7034.00
2023-04-18T06:27:04.995Z,7038.00
2023-04-18T06:28:05.219Z,7152.00
2023-04-18T06:29:04.987Z,7398.00
2023-04-18T06:30:04.978Z,7815.00
2023-04-18T06:31:05.071Z,8184.00
2023-04-18T06:32:05.824Z,8107.00
2023-04-18T06:33:05.124Z,8269.00
2023-04-18T06:34:05.125Z,8344.00
2023-04-18T06:35:05.071Z,8829.00
2023-04-18T06:36:04.998Z,8926.00
2023-04-18T06:37:05.023Z,8748.00
2023-04-18T06:38:05.090Z,8632.00
2023-04-18T06:39:05.009Z,8698.00
2023-04-18T06:40:04.973Z,8625.00
2023-04-18T06:41:05.001Z,8316.00
2023-04-18T06:42:05.217Z,7996.00
2023-04-18T06:43:04.931Z,7914.00
2023-04-18T06:44:05.004Z,7875.00
2023-04-18T06:45:04.916Z,7851.00
2023-04-18T06:46:05.047Z,8059.00
2023-04-18T06:47:04.912Z,8226.00
2023-04-18T06:48:04.948Z,8194.00
2023-04-18T06:49:04.989Z,8050.00
2023-04-18T06:50:04.917Z,7905.00
2023-04-18T06:51:04.838Z,7859.00
2023-04-18T06:52:04.908Z,7854.00
2023-04-18T06:53:04.870Z,7792.00
2023-04-18T06:54:04.877Z,7208.00
2023-04-18T06:55:04.895Z,6850.00
2023-04-18T06:56:04.970Z,6645.00
2023-04-18T06:57:04.993Z,6558.00
2023-04-18T06:58:05.063Z,6255.00
2023-04-18T06:59:05.070Z,6151.00
2023-04-18T07:00:05.093Z,6129.00
2023-04-18T07:01:05.094Z,5334.00
2023-04-18T07:02:05.232Z,4747.00
2023-04-18T07:03:05.382Z,4350.00
2023-04-18T07:04:05.149Z,3744.00
2023-04-18T07:05:05.153Z,3530.00
2023-04-18T07:06:05.035Z,3524.00
2023-04-18T07:07:05.012Z,3408.00
2023-04-18T07:08:04.979Z,3160.00
2023-04-18T07:09:05.244Z,3036.00
2023-04-18T07:10:04.973Z,2992.00
2023-04-18T07:11:05.082Z,2934.00
2023-04-18T07:12:04.960Z,2974.00
2023-04-18T07:13:04.928Z,2869.00
2023-04-18T07:14:04.971Z,2601.00
2023-04-18T07:15:04.917Z,2323.00
2023-04-18T07:16:05.809Z,2168.00
2023-04-18T07:17:05.026Z,2157.00
2023-04-18T07:18:07.808Z,2010.00
2023-04-18T07:19:04.900Z,1883.00
2023-04-18T07:20:04.874Z,1715.00
2023-04-18T07:21:04.872Z,1692.00
2023-04-18T07:22:04.886Z,1692.00
2023-04-18T07:23:04.903Z,1633.00
2023-04-18T07:24:04.867Z,1586.00
2023-04-18T07:25:05.641Z,1455.00
2023-04-18T07:26:04.868Z,1551.00
2023-04-18T07:27:08.867Z,1573.00
2023-04-18T07:28:04.893Z,1579.00
2023-04-18T07:29:04.874Z,1594.00
2023-04-18T07:30:04.973Z,1589.00
2023-04-18T07:31:04.848Z,1504.00
2023-04-18T07:32:06.216Z,1579.00
2023-04-18T07:33:06.912Z,1569.00
2023-04-18T07:34:04.789Z,1565.00
2023-04-18T07:35:04.777Z,1271.00
2023-04-18T07:36:04.800Z,968.00
2023-04-18T07:37:04.832Z,898.00
2023-04-18T07:38:04.786Z,881.00
2023-04-18T07:39:04.877Z,854.00
2023-04-18T07:40:04.759Z,860.00
2023-04-18T07:41:05.935Z,714.00
2023-04-18T07:42:04.788Z,632.00
2023-04-18T07:43:04.874Z,480.00
2023-04-18T07:44:04.907Z,400.00
2023-04-18T07:45:04.810Z,400.00
2023-04-18T07:46:04.804Z,416.00
2023-04-18T07:47:04.792Z,400.00
2023-04-18T07:48:04.849Z,400.00
2023-04-18T07:49:04.834Z,400.00
2023-04-18T07:50:04.833Z,400.00
2023-04-18T07:51:04.819Z,400.00
2023-04-18T07:52:04.965Z,400.00
2023-04-18T07:53:04.979Z,400.00
2023-04-18T07:54:04.979Z,400.00
2023-04-18T07:55:04.925Z,400.00
2023-04-18T07:56:05.073Z,400.00
2023-04-18T07:57:04.982Z,400.00
2023-04-18T07:58:05.002Z,400.00
2023-04-18T07:59:05.087Z,400.00
2023-04-18T08:00:05.019Z,400.00
2023-04-18T08:01:05.034Z,400.00
2023-04-18T08:02:05.195Z,400.00
2023-04-18T08:03:05.229Z,400.00
2023-04-18T08:04:05.277Z,400.00
2023-04-18T08:05:05.182Z,400.00
2023-04-18T08:06:05.103Z,400.00
2023-04-18T08:07:05.162Z,400.00
2023-04-18T08:08:05.124Z,400.00
2023-04-18T08:09:05.131Z,400.00
2023-04-18T08:10:05.108Z,400.00
2023-04-18T08:11:06.761Z,400.00
2023-04-18T08:12:05.736Z,400.00
2023-04-18T08:13:05.754Z,400.00
2023-04-18T08:14:05.268Z,401.00
2023-04-18T08:15:05.335Z,416.00
2023-04-18T08:16:05.270Z,449.00
2023-04-18T08:17:05.224Z,500.00
2023-04-18T08:18:05.286Z,660.00
2023-04-18T08:19:05.224Z,855.00
2023-04-18T08:20:05.238Z,923.00
2023-04-18T08:21:05.242Z,1054.00
2023-04-18T08:22:05.204Z,913.00
2023-04-18T08:23:08.701Z,780.00
2023-04-18T08:24:05.133Z,782.00
2023-04-18T08:25:05.858Z,801.00
2023-04-18T08:26:05.068Z,615.00
2023-04-18T08:27:05.052Z,637.00
2023-04-18T08:28:05.011Z,652.00
2023-04-18T08:29:04.939Z,803.00
2023-04-18T08:30:04.996Z,727.00
2023-04-18T08:31:04.852Z,643.00
2023-04-18T08:32:04.897Z,689.00
2023-04-18T08:33:04.875Z,591.00
2023-04-18T08:34:05.179Z,517.00
2023-04-18T08:35:04.671Z,546.00
2023-04-18T08:36:04.744Z,461.00
2023-04-18T08:37:04.640Z,483.00
2023-04-18T08:38:04.523Z,498.00
2023-04-18T08:39:04.503Z,524.00
2023-04-18T08:40:04.411Z,693.00
2023-04-18T08:41:05.398Z,847.00
2023-04-18T08:42:04.304Z,1002.00
2023-04-18T08:43:05.251Z,834.00
2023-04-18T08:44:04.732Z,932.00
2023-04-18T08:45:04.220Z,1127.00
2023-04-18T08:46:04.210Z,1424.00
2023-04-18T08:47:04.095Z,1202.00
2023-04-18T08:48:04.109Z,764.00
2023-04-18T08:49:04.837Z,783.00
2023-04-18T08:50:04.079Z,971.00
2023-04-18T08:51:03.952Z,770.00
2023-04-18T08:52:03.919Z,700.00
2023-04-18T08:53:03.905Z,635.00
2023-04-18T08:54:03.894Z,663.00
2023-04-18T08:55:04.038Z,654.00
2023-04-18T08:56:03.999Z,648.00
2023-04-18T08:57:04.083Z,850.00
2023-04-18T08:58:03.881Z,956.00
2023-04-18T08:59:03.859Z,718.00
2023-04-18T09:00:03.869Z,700.00
2023-04-18T09:01:03.891Z,652.00
2023-04-18T09:02:04.841Z,766.00
2023-04-18T09:03:04.164Z,855.00
2023-04-18T09:04:03.905Z,708.00
2023-04-18T09:05:03.906Z,736.00
2023-04-18T09:06:03.929Z,699.00
2023-04-18T09:07:03.943Z,665.00
2023-04-18T09:08:03.908Z,629.00
2023-04-18T09:09:03.938Z,610.00
2023-04-18T09:10:03.907Z,579.00
2023-04-18T09:11:03.913Z,581.00
2023-04-18T09:12:03.891Z,739.00
2023-04-18T09:13:03.939Z,1323.00
2023-04-18T09:14:03.876Z,1147.00
2023-04-18T09:15:04.017Z,783.00
2023-04-18T09:16:03.877Z,568.00
2023-04-18T09:17:04.022Z,575.00
2023-04-18T09:18:03.883Z,658.00
2023-04-18T09:19:05.747Z,689.00
2023-04-18T09:20:03.833Z,653.00
2023-04-18T09:21:03.805Z,872.00
2023-04-18T09:22:03.762Z,877.00
2023-04-18T09:23:03.702Z,774.00
2023-04-18T09:24:03.647Z,617.00
2023-04-18T09:25:03.742Z,557.00
2023-04-18T09:26:04.156Z,521.00
2023-04-18T09:27:03.506Z,549.00
2023-04-18T09:28:03.481Z,615.00
2023-04-18T09:29:03.439Z,533.00
2023-04-18T09:30:03.401Z,559.00
2023-04-18T09:31:03.377Z,506.00
2023-04-18T09:32:03.298Z,486.00
2023-04-18T09:33:03.244Z,505.00
2023-04-18T09:34:03.171Z,477.00
2023-04-18T09:35:04.606Z,516.00
2023-04-18T09:36:03.105Z,547.00
2023-04-18T09:37:03.077Z,621.00
2023-04-18T09:38:03.062Z,622.00
2023-04-18T09:39:02.968Z,636.00
2023-04-18T09:40:02.925Z,875.00
2023-04-18T09:41:02.909Z,858.00
2023-04-18T09:42:02.833Z,811.00
2023-04-18T09:43:03.755Z,919.00
2023-04-18T09:44:02.756Z,811.00
2023-04-18T09:45:02.715Z,696.00
2023-04-18T09:46:02.811Z,674.00
2023-04-18T09:47:02.774Z,784.00
2023-04-18T09:48:02.599Z,877.00
2023-04-18T09:49:02.550Z,1197.00
2023-04-18T09:50:03.274Z,900.00
2023-04-18T09:51:02.479Z,815.00
2023-04-18T09:52:02.515Z,624.00
2023-04-18T09:53:02.515Z,641.00
2023-04-18T09:54:02.536Z,896.00
2023-04-18T09:55:02.523Z,1072.00
2023-04-18T09:56:02.530Z,1332.00
2023-04-18T09:57:02.488Z,1297.00
2023-04-18T09:58:02.510Z,1101.00
2023-04-18T09:59:02.464Z,813.00
2023-04-18T10:00:02.490Z,654.00
2023-04-18T10:01:02.455Z,517.00
2023-04-18T10:02:02.523Z,603.00
2023-04-18T10:03:02.564Z,650.00
2023-04-18T10:04:02.511Z,655.00
2023-04-18T10:05:02.561Z,562.00
2023-04-18T10:06:02.486Z,526.00
2023-04-18T10:07:02.360Z,558.00
2023-04-18T10:08:02.387Z,508.00
2023-04-18T10:09:02.349Z,456.00
2023-04-18T10:10:02.371Z,477.00
2023-04-18T10:11:02.364Z,592.00
2023-04-18T10:12:02.354Z,637.00
2023-04-18T10:13:02.360Z,745.00
2023-04-18T10:14:02.299Z,853.00
2023-04-18T10:15:02.340Z,1152.00
2023-04-18T10:16:02.403Z,1085.00
2023-04-18T10:17:02.440Z,1107.00
2023-04-18T10:18:05.094Z,1303.00
2023-04-18T10:19:02.295Z,1316.00
2023-04-18T10:20:02.268Z,1707.00
2023-04-18T10:21:02.194Z,1944.00
2023-04-18T10:22:02.139Z,1793.00
2023-04-18T10:23:02.090Z,1506.00
2023-04-18T10:24:02.130Z,1450.00
2023-04-18T10:25:01.974Z,1500.00
2023-04-18T10:26:01.896Z,1615.00
2023-04-18T10:27:01.812Z,1762.00
2023-04-18T10:28:01.787Z,1892.00
2023-04-18T10:29:01.712Z,2045.00
2023-04-18T10:30:01.660Z,2017.00
2023-04-18T10:31:01.770Z,2077.00
2023-04-18T10:32:01.525Z,2389.00
2023-04-18T10:33:01.495Z,2172.00
2023-04-18T10:34:05.331Z,2269.00
2023-04-18T10:35:02.376Z,2245.00
2023-04-18T10:36:04.918Z,2244.00
2023-04-18T10:37:01.287Z,2146.00
2023-04-18T10:38:01.268Z,2025.00
2023-04-18T10:39:01.222Z,2037.00
2023-04-18T10:40:01.318Z,2026.00
2023-04-18T10:41:01.068Z,1966.00
2023-04-18T10:42:01.000Z,2320.00
2023-04-18T10:43:00.948Z,2160.00
2023-04-18T10:44:00.937Z,2052.00
2023-04-18T10:45:00.842Z,1837.00
2023-04-18T10:46:01.127Z,1740.00
2023-04-18T10:47:00.798Z,1837.00
2023-04-18T10:48:00.781Z,1793.00
2023-04-18T10:49:00.601Z,1826.00
2023-04-18T10:50:00.562Z,1826.00
2023-04-18T10:51:01.356Z,1832.00
2023-04-18T10:52:00.456Z,1873.00
2023-04-18T10:53:00.365Z,1556.00
2023-04-18T10:54:00.337Z,1540.00
2023-04-18T10:55:00.800Z,1206.00
2023-04-18T10:56:00.216Z,1134.00
2023-04-18T10:57:00.121Z,837.00
2023-04-18T10:58:00.074Z,998.00
2023-04-18T10:58:59.992Z,1284.00
2023-04-18T10:59:59.962Z,1395.00
2023-04-18T11:00:59.885Z,1510.00
2023-04-18T11:02:00.138Z,1117.00
2023-04-18T11:02:59.986Z,702.00
2023-04-18T11:03:59.852Z,750.00
2023-04-18T11:05:00.579Z,583.00
2023-04-18T11:05:59.787Z,579.00
2023-04-18T11:06:59.692Z,619.00
2023-04-18T11:07:59.721Z,620.00
2023-04-18T11:08:59.788Z,447.00
2023-04-18T11:09:59.676Z,400.00
2023-04-18T11:10:59.636Z,400.00
2023-04-18T11:11:59.652Z,524.00
2023-04-18T11:12:59.690Z,558.00
2023-04-18T11:13:59.682Z,465.00
2023-04-18T11:14:59.579Z,411.00
2023-04-18T11:15:59.799Z,502.00
2023-04-18T11:16:59.559Z,538.00
2023-04-18T11:17:59.567Z,552.00
2023-04-18T11:18:59.480Z,556.00
2023-04-18T11:19:59.473Z,497.00
2023-04-18T11:21:01.533Z,575.00
2023-04-18T11:21:59.457Z,660.00
2023-04-18T11:22:59.428Z,634.00
2023-04-18T11:23:59.414Z,541.00
2023-04-18T11:24:59.421Z,400.00
2023-04-18T11:25:59.429Z,400.00
2023-04-18T11:26:59.424Z,400.00
2023-04-18T11:27:59.379Z,400.00
2023-04-18T11:28:59.438Z,400.00
2023-04-18T11:29:59.399Z,445.00
2023-04-18T11:30:59.387Z,505.00
2023-04-18T11:31:59.832Z,518.00
2023-04-18T11:32:59.560Z,571.00
2023-04-18T11:33:59.371Z,494.00
2023-04-18T11:34:59.407Z,518.00
2023-04-18T11:35:59.509Z,499.00
2023-04-18T11:36:59.514Z,502.00
2023-04-18T11:37:59.438Z,532.00
2023-04-18T11:38:59.515Z,563.00
2023-04-18T11:39:59.453Z,661.00
2023-04-18T11:40:59.481Z,550.00
2023-04-18T11:41:59.495Z,531.00
2023-04-18T11:42:59.459Z,608.00
2023-04-18T11:43:59.554Z,463.00
2023-04-18T11:44:59.487Z,481.00
2023-04-18T11:46:00.430Z,478.00
2023-04-18T11:46:59.430Z,400.00
2023-04-18T11:47:59.448Z,491.00
2023-04-18T11:48:59.320Z,566.00
2023-04-18T11:49:59.260Z,787.00
2023-04-18T11:50:59.222Z,928.00
2023-04-18T11:51:59.224Z,1111.00
2023-04-18T11:52:59.110Z,1153.00
2023-04-18T11:53:59.059Z,1113.00
2023-04-18T11:54:59.017Z,976.00
2023-04-18T11:55:59.076Z,646.00
2023-04-18T11:56:58.904Z,569.00
2023-04-18T11:57:58.893Z,655.00
2023-04-18T11:58:58.860Z,609.00
2023-04-18T11:59:58.829Z,666.00
2023-04-18T12:00:58.875Z,601.00
2023-04-18T12:01:59.043Z,603.00
2023-04-18T12:02:59.076Z,740.00
2023-04-18T12:03:58.922Z,654.00